sensor_id;sensor_type;location;lat;lon;timestamp;P1;durP1;ratioP1;P2;durP2;ratioP2
54871;SDS011;43914;57.680;11.982;2024-01-27T00:01:22;27.10;;;3.60;;
54871;SDS011;43914;57.680;11.982;2024-01-27T00:03:47;27.00;;;3.30;;
54871;SDS011;43914;57.680;11.982;2024-01-27T00:06:13;29.20;;;3.50;;
54871;SDS011;43914;57.680;11.982;2024-01-27T00:08:38;30.70;;;3.90;;
54871;SDS011;43914;57.680;11.982;2024-01-27T00:11:04;25.60;;;4.20;;
54871;SDS011;43914;57.680;11.982;2024-01-27T00:13:30;25.40;;;3.20;;
54871;SDS011;43914;57.680;11.982;2024-01-27T00:15:55;27.70;;;3.10;;
54871;SDS011;43914;57.680;11.982;2024-01-27T00:18:20;26.10;;;3.50;;
54871;SDS011;43914;57.680;11.982;2024-01-27T00:20:46;23.00;;;3.50;;
54871;SDS011;43914;57.680;11.982;2024-01-27T00:23:11;28.90;;;3.60;;
54871;SDS011;43914;57.680;11.982;2024-01-27T00:25:37;21.30;;;3.00;;
54871;SDS011;43914;57.680;11.982;2024-01-27T00:28:03;20.10;;;2.60;;
54871;SDS011;43914;57.680;11.982;2024-01-27T00:30:28;24.70;;;3.40;;
54871;SDS011;43914;57.680;11.982;2024-01-27T00:32:54;23.10;;;2.90;;
54871;SDS011;43914;57.680;11.982;2024-01-27T00:35:19;20.50;;;3.20;;
54871;SDS011;43914;57.680;11.982;2024-01-27T00:37:45;25.40;;;3.30;;
54871;SDS011;43914;57.680;11.982;2024-01-27T00:40:10;28.80;;;3.60;;
54871;SDS011;43914;57.680;11.982;2024-01-27T00:42:37;29.00;;;3.00;;
54871;SDS011;43914;57.680;11.982;2024-01-27T00:45:03;29.10;;;3.50;;
54871;SDS011;43914;57.680;11.982;2024-01-27T00:47:30;27.10;;;3.40;;
54871;SDS011;43914;57.680;11.982;2024-01-27T00:49:56;22.00;;;3.30;;
54871;SDS011;43914;57.680;11.982;2024-01-27T00:52:21;18.40;;;2.60;;
54871;SDS011;43914;57.680;11.982;2024-01-27T00:54:47;24.00;;;3.20;;
54871;SDS011;43914;57.680;11.982;2024-01-27T00:57:13;31.30;;;3.30;;
54871;SDS011;43914;57.680;11.982;2024-01-27T00:59:39;21.40;;;2.80;;
54871;SDS011;43914;57.680;11.982;2024-01-27T01:02:06;20.50;;;2.80;;
54871;SDS011;43914;57.680;11.982;2024-01-27T01:04:32;23.10;;;3.00;;
54871;SDS011;43914;57.680;11.982;2024-01-27T01:06:58;20.20;;;2.70;;
54871;SDS011;43914;57.680;11.982;2024-01-27T01:09:24;19.40;;;2.90;;
54871;SDS011;43914;57.680;11.982;2024-01-27T01:11:49;19.40;;;2.80;;
54871;SDS011;43914;57.680;11.982;2024-01-27T01:14:15;23.10;;;3.10;;
54871;SDS011;43914;57.680;11.982;2024-01-27T01:16:40;24.90;;;3.50;;
54871;SDS011;43914;57.680;11.982;2024-01-27T01:19:06;22.80;;;2.80;;
54871;SDS011;43914;57.680;11.982;2024-01-27T01:21:32;29.00;;;3.90;;
54871;SDS011;43914;57.680;11.982;2024-01-27T01:23:57;20.00;;;3.10;;
54871;SDS011;43914;57.680;11.982;2024-01-27T01:26:24;24.20;;;3.00;;
54871;SDS011;43914;57.680;11.982;2024-01-27T01:28:50;22.40;;;3.30;;
54871;SDS011;43914;57.680;11.982;2024-01-27T01:31:15;23.90;;;3.00;;
54871;SDS011;43914;57.680;11.982;2024-01-27T01:33:41;28.80;;;3.00;;
54871;SDS011;43914;57.680;11.982;2024-01-27T01:36:08;16.20;;;2.00;;
54871;SDS011;43914;57.680;11.982;2024-01-27T01:38:33;21.80;;;3.10;;
54871;SDS011;43914;57.680;11.982;2024-01-27T01:40:58;18.70;;;2.90;;
54871;SDS011;43914;57.680;11.982;2024-01-27T01:43:24;29.30;;;3.80;;
54871;SDS011;43914;57.680;11.982;2024-01-27T01:45:49;24.80;;;4.00;;
54871;SDS011;43914;57.680;11.982;2024-01-27T01:48:17;18.70;;;2.90;;
54871;SDS011;43914;57.680;11.982;2024-01-27T01:50:43;23.10;;;3.70;;
54871;SDS011;43914;57.680;11.982;2024-01-27T01:53:08;24.30;;;3.30;;
54871;SDS011;43914;57.680;11.982;2024-01-27T01:55:34;25.20;;;3.50;;
54871;SDS011;43914;57.680;11.982;2024-01-27T01:58:00;26.00;;;3.70;;
54871;SDS011;43914;57.680;11.982;2024-01-27T02:00:26;20.90;;;2.70;;
54871;SDS011;43914;57.680;11.982;2024-01-27T02:02:52;22.90;;;2.90;;
54871;SDS011;43914;57.680;11.982;2024-01-27T02:05:17;24.00;;;3.10;;
54871;SDS011;43914;57.680;11.982;2024-01-27T02:07:43;27.60;;;3.80;;
54871;SDS011;43914;57.680;11.982;2024-01-27T02:10:12;19.60;;;2.70;;
54871;SDS011;43914;57.680;11.982;2024-01-27T02:12:41;28.10;;;4.20;;
54871;SDS011;43914;57.680;11.982;2024-01-27T02:15:09;26.50;;;3.20;;
54871;SDS011;43914;57.680;11.982;2024-01-27T02:17:37;25.80;;;3.30;;
54871;SDS011;43914;57.680;11.982;2024-01-27T02:20:02;23.00;;;3.10;;
54871;SDS011;43914;57.680;11.982;2024-01-27T02:22:29;21.80;;;3.30;;
54871;SDS011;43914;57.680;11.982;2024-01-27T02:24:54;32.40;;;3.20;;
54871;SDS011;43914;57.680;11.982;2024-01-27T02:27:19;20.80;;;3.30;;
54871;SDS011;43914;57.680;11.982;2024-01-27T02:29:45;21.00;;;3.00;;
54871;SDS011;43914;57.680;11.982;2024-01-27T02:32:10;29.10;;;3.60;;
54871;SDS011;43914;57.680;11.982;2024-01-27T02:34:36;20.90;;;2.80;;
54871;SDS011;43914;57.680;11.982;2024-01-27T02:37:02;31.30;;;3.70;;
54871;SDS011;43914;57.680;11.982;2024-01-27T02:39:28;22.20;;;3.20;;
54871;SDS011;43914;57.680;11.982;2024-01-27T02:41:53;28.70;;;3.80;;
54871;SDS011;43914;57.680;11.982;2024-01-27T02:44:19;34.60;;;3.30;;
54871;SDS011;43914;57.680;11.982;2024-01-27T02:46:44;33.00;;;3.90;;
54871;SDS011;43914;57.680;11.982;2024-01-27T02:49:10;21.70;;;3.10;;
54871;SDS011;43914;57.680;11.982;2024-01-27T02:51:35;29.10;;;2.90;;
54871;SDS011;43914;57.680;11.982;2024-01-27T02:54:00;25.70;;;3.30;;
54871;SDS011;43914;57.680;11.982;2024-01-27T02:56:26;26.30;;;3.20;;
54871;SDS011;43914;57.680;11.982;2024-01-27T02:58:52;26.70;;;3.40;;
54871;SDS011;43914;57.680;11.982;2024-01-27T03:01:18;20.90;;;3.50;;
54871;SDS011;43914;57.680;11.982;2024-01-27T03:03:43;22.50;;;3.80;;
54871;SDS011;43914;57.680;11.982;2024-01-27T03:06:09;22.20;;;3.10;;
54871;SDS011;43914;57.680;11.982;2024-01-27T03:08:34;25.10;;;3.40;;
54871;SDS011;43914;57.680;11.982;2024-01-27T03:11:00;19.50;;;2.40;;
54871;SDS011;43914;57.680;11.982;2024-01-27T03:13:25;20.90;;;3.20;;
54871;SDS011;43914;57.680;11.982;2024-01-27T03:15:50;22.10;;;3.20;;
54871;SDS011;43914;57.680;11.982;2024-01-27T03:18:17;29.50;;;3.10;;
54871;SDS011;43914;57.680;11.982;2024-01-27T03:20:43;37.30;;;4.50;;
54871;SDS011;43914;57.680;11.982;2024-01-27T03:23:08;22.10;;;3.30;;
54871;SDS011;43914;57.680;11.982;2024-01-27T03:25:34;21.80;;;3.30;;
54871;SDS011;43914;57.680;11.982;2024-01-27T03:27:59;24.60;;;3.20;;
54871;SDS011;43914;57.680;11.982;2024-01-27T03:30:26;25.10;;;3.50;;
54871;SDS011;43914;57.680;11.982;2024-01-27T03:32:51;31.80;;;3.90;;
54871;SDS011;43914;57.680;11.982;2024-01-27T03:35:17;32.20;;;3.80;;
54871;SDS011;43914;57.680;11.982;2024-01-27T03:37:42;25.50;;;4.10;;
54871;SDS011;43914;57.680;11.982;2024-01-27T03:40:08;31.50;;;3.80;;
54871;SDS011;43914;57.680;11.982;2024-01-27T03:42:34;30.30;;;3.90;;
54871;SDS011;43914;57.680;11.982;2024-01-27T03:44:59;30.20;;;3.70;;
54871;SDS011;43914;57.680;11.982;2024-01-27T03:47:25;22.30;;;3.50;;
54871;SDS011;43914;57.680;11.982;2024-01-27T03:49:50;25.20;;;3.20;;
54871;SDS011;43914;57.680;11.982;2024-01-27T03:52:16;31.60;;;4.10;;
54871;SDS011;43914;57.680;11.982;2024-01-27T03:54:41;26.00;;;3.50;;
54871;SDS011;43914;57.680;11.982;2024-01-27T03:57:07;29.60;;;3.40;;
54871;SDS011;43914;57.680;11.982;2024-01-27T03:59:32;28.10;;;3.70;;
54871;SDS011;43914;57.680;11.982;2024-01-27T04:01:58;25.70;;;4.00;;
54871;SDS011;43914;57.680;11.982;2024-01-27T04:04:23;27.70;;;3.90;;
54871;SDS011;43914;57.680;11.982;2024-01-27T04:06:49;27.00;;;4.10;;
54871;SDS011;43914;57.680;11.982;2024-01-27T04:09:14;26.50;;;3.50;;
54871;SDS011;43914;57.680;11.982;2024-01-27T04:11:40;29.20;;;3.60;;
54871;SDS011;43914;57.680;11.982;2024-01-27T04:14:06;29.70;;;3.90;;
54871;SDS011;43914;57.680;11.982;2024-01-27T04:16:33;35.40;;;4.20;;
54871;SDS011;43914;57.680;11.982;2024-01-27T04:18:58;33.90;;;4.80;;
54871;SDS011;43914;57.680;11.982;2024-01-27T04:21:24;28.00;;;3.90;;
54871;SDS011;43914;57.680;11.982;2024-01-27T04:23:49;31.90;;;3.70;;
54871;SDS011;43914;57.680;11.982;2024-01-27T04:26:14;25.10;;;3.30;;
54871;SDS011;43914;57.680;11.982;2024-01-27T04:28:40;27.40;;;3.50;;
54871;SDS011;43914;57.680;11.982;2024-01-27T04:31:06;21.20;;;3.40;;
54871;SDS011;43914;57.680;11.982;2024-01-27T04:33:31;32.60;;;3.80;;
54871;SDS011;43914;57.680;11.982;2024-01-27T04:35:57;41.70;;;4.60;;
54871;SDS011;43914;57.680;11.982;2024-01-27T04:38:23;35.50;;;4.30;;
54871;SDS011;43914;57.680;11.982;2024-01-27T04:40:49;27.50;;;4.50;;
54871;SDS011;43914;57.680;11.982;2024-01-27T04:43:15;30.60;;;3.70;;
54871;SDS011;43914;57.680;11.982;2024-01-27T04:45:42;37.80;;;4.10;;
54871;SDS011;43914;57.680;11.982;2024-01-27T04:48:08;36.50;;;5.00;;
54871;SDS011;43914;57.680;11.982;2024-01-27T04:50:33;29.30;;;4.20;;
54871;SDS011;43914;57.680;11.982;2024-01-27T04:52:59;31.40;;;3.90;;
54871;SDS011;43914;57.680;11.982;2024-01-27T04:55:26;30.50;;;4.20;;
54871;SDS011;43914;57.680;11.982;2024-01-27T04:57:51;27.20;;;3.70;;
54871;SDS011;43914;57.680;11.982;2024-01-27T05:00:17;31.90;;;4.10;;
54871;SDS011;43914;57.680;11.982;2024-01-27T05:02:44;37.50;;;4.00;;
54871;SDS011;43914;57.680;11.982;2024-01-27T05:05:10;36.90;;;5.40;;
54871;SDS011;43914;57.680;11.982;2024-01-27T05:07:37;30.70;;;4.30;;
54871;SDS011;43914;57.680;11.982;2024-01-27T05:10:03;35.10;;;4.40;;
54871;SDS011;43914;57.680;11.982;2024-01-27T05:12:29;32.00;;;4.50;;
54871;SDS011;43914;57.680;11.982;2024-01-27T05:14:54;28.40;;;3.70;;
54871;SDS011;43914;57.680;11.982;2024-01-27T05:17:20;34.90;;;4.10;;
54871;SDS011;43914;57.680;11.982;2024-01-27T05:19:45;35.60;;;4.30;;
54871;SDS011;43914;57.680;11.982;2024-01-27T05:22:11;38.50;;;5.60;;
54871;SDS011;43914;57.680;11.982;2024-01-27T05:24:36;36.00;;;4.40;;
54871;SDS011;43914;57.680;11.982;2024-01-27T05:27:02;34.00;;;4.40;;
54871;SDS011;43914;57.680;11.982;2024-01-27T05:29:28;28.10;;;3.90;;
54871;SDS011;43914;57.680;11.982;2024-01-27T05:31:54;34.00;;;5.80;;
54871;SDS011;43914;57.680;11.982;2024-01-27T05:34:19;35.80;;;4.30;;
54871;SDS011;43914;57.680;11.982;2024-01-27T05:36:46;32.60;;;4.60;;
54871;SDS011;43914;57.680;11.982;2024-01-27T05:39:13;31.80;;;4.30;;
54871;SDS011;43914;57.680;11.982;2024-01-27T05:41:39;29.60;;;4.00;;
54871;SDS011;43914;57.680;11.982;2024-01-27T05:44:04;32.50;;;4.60;;
54871;SDS011;43914;57.680;11.982;2024-01-27T05:46:30;36.30;;;4.00;;
54871;SDS011;43914;57.680;11.982;2024-01-27T05:48:55;30.70;;;3.90;;
54871;SDS011;43914;57.680;11.982;2024-01-27T05:51:26;28.40;;;4.20;;
54871;SDS011;43914;57.680;11.982;2024-01-27T05:53:53;29.70;;;3.50;;
54871;SDS011;43914;57.680;11.982;2024-01-27T05:56:18;38.30;;;4.70;;
54871;SDS011;43914;57.680;11.982;2024-01-27T05:58:47;41.20;;;5.00;;
54871;SDS011;43914;57.680;11.982;2024-01-27T06:01:13;33.40;;;4.50;;
54871;SDS011;43914;57.680;11.982;2024-01-27T06:03:40;38.90;;;3.90;;
54871;SDS011;43914;57.680;11.982;2024-01-27T06:06:07;41.10;;;5.10;;
54871;SDS011;43914;57.680;11.982;2024-01-27T06:08:33;34.90;;;4.20;;
54871;SDS011;43914;57.680;11.982;2024-01-27T06:10:58;36.40;;;4.40;;
54871;SDS011;43914;57.680;11.982;2024-01-27T06:13:24;41.80;;;5.10;;
54871;SDS011;43914;57.680;11.982;2024-01-27T06:15:49;39.90;;;5.10;;
54871;SDS011;43914;57.680;11.982;2024-01-27T06:18:16;52.60;;;5.50;;
54871;SDS011;43914;57.680;11.982;2024-01-27T06:20:41;42.70;;;5.20;;
54871;SDS011;43914;57.680;11.982;2024-01-27T06:23:07;47.40;;;5.30;;
54871;SDS011;43914;57.680;11.982;2024-01-27T06:25:33;37.00;;;5.00;;
54871;SDS011;43914;57.680;11.982;2024-01-27T06:27:59;38.20;;;4.70;;
54871;SDS011;43914;57.680;11.982;2024-01-27T06:30:25;35.70;;;4.50;;
54871;SDS011;43914;57.680;11.982;2024-01-27T06:32:50;38.00;;;4.80;;
54871;SDS011;43914;57.680;11.982;2024-01-27T06:35:16;36.50;;;4.10;;
54871;SDS011;43914;57.680;11.982;2024-01-27T06:37:42;46.50;;;5.70;;
54871;SDS011;43914;57.680;11.982;2024-01-27T06:40:07;40.80;;;4.90;;
54871;SDS011;43914;57.680;11.982;2024-01-27T06:42:36;44.50;;;5.30;;
54871;SDS011;43914;57.680;11.982;2024-01-27T06:45:02;49.70;;;5.10;;
54871;SDS011;43914;57.680;11.982;2024-01-27T06:47:28;38.60;;;4.90;;
54871;SDS011;43914;57.680;11.982;2024-01-27T06:49:54;38.50;;;5.30;;
54871;SDS011;43914;57.680;11.982;2024-01-27T06:52:19;48.20;;;5.90;;
54871;SDS011;43914;57.680;11.982;2024-01-27T06:54:45;43.10;;;5.60;;
54871;SDS011;43914;57.680;11.982;2024-01-27T06:57:18;49.80;;;6.20;;
54871;SDS011;43914;57.680;11.982;2024-01-27T06:59:44;36.10;;;4.30;;
54871;SDS011;43914;57.680;11.982;2024-01-27T07:02:10;54.20;;;6.20;;
54871;SDS011;43914;57.680;11.982;2024-01-27T07:04:39;48.60;;;6.20;;
54871;SDS011;43914;57.680;11.982;2024-01-27T07:07:04;47.30;;;6.00;;
54871;SDS011;43914;57.680;11.982;2024-01-27T07:09:30;42.50;;;5.40;;
54871;SDS011;43914;57.680;11.982;2024-01-27T07:11:55;43.20;;;5.00;;
54871;SDS011;43914;57.680;11.982;2024-01-27T07:14:21;40.60;;;5.80;;
54871;SDS011;43914;57.680;11.982;2024-01-27T07:16:46;36.50;;;4.40;;
54871;SDS011;43914;57.680;11.982;2024-01-27T07:19:12;42.30;;;5.20;;
54871;SDS011;43914;57.680;11.982;2024-01-27T07:21:38;47.90;;;5.50;;
54871;SDS011;43914;57.680;11.982;2024-01-27T07:24:04;38.30;;;4.80;;
54871;SDS011;43914;57.680;11.982;2024-01-27T07:26:29;43.90;;;5.80;;
54871;SDS011;43914;57.680;11.982;2024-01-27T07:28:55;47.10;;;5.90;;
54871;SDS011;43914;57.680;11.982;2024-01-27T07:31:21;41.50;;;5.20;;
54871;SDS011;43914;57.680;11.982;2024-01-27T07:33:47;41.60;;;6.10;;
54871;SDS011;43914;57.680;11.982;2024-01-27T07:36:12;41.90;;;5.70;;
54871;SDS011;43914;57.680;11.982;2024-01-27T07:38:37;53.60;;;6.50;;
54871;SDS011;43914;57.680;11.982;2024-01-27T07:41:03;40.20;;;5.40;;
54871;SDS011;43914;57.680;11.982;2024-01-27T07:43:28;41.00;;;5.70;;
54871;SDS011;43914;57.680;11.982;2024-01-27T07:45:54;40.70;;;5.00;;
54871;SDS011;43914;57.680;11.982;2024-01-27T07:48:19;53.30;;;6.40;;
54871;SDS011;43914;57.680;11.982;2024-01-27T07:50:45;49.40;;;6.20;;
54871;SDS011;43914;57.680;11.982;2024-01-27T07:53:13;44.50;;;5.30;;
54871;SDS011;43914;57.680;11.982;2024-01-27T07:55:40;45.50;;;5.60;;
54871;SDS011;43914;57.680;11.982;2024-01-27T07:58:05;54.30;;;5.50;;
54871;SDS011;43914;57.680;11.982;2024-01-27T08:00:31;54.40;;;5.80;;
54871;SDS011;43914;57.680;11.982;2024-01-27T08:02:57;60.90;;;7.60;;
54871;SDS011;43914;57.680;11.982;2024-01-27T08:05:23;57.90;;;6.20;;
54871;SDS011;43914;57.680;11.982;2024-01-27T08:07:49;47.70;;;5.80;;
54871;SDS011;43914;57.680;11.982;2024-01-27T08:10:15;35.50;;;4.90;;
54871;SDS011;43914;57.680;11.982;2024-01-27T08:12:40;46.40;;;6.10;;
54871;SDS011;43914;57.680;11.982;2024-01-27T08:15:06;58.70;;;6.40;;
54871;SDS011;43914;57.680;11.982;2024-01-27T08:17:32;40.10;;;4.60;;
54871;SDS011;43914;57.680;11.982;2024-01-27T08:19:58;43.10;;;4.80;;
54871;SDS011;43914;57.680;11.982;2024-01-27T08:22:24;48.20;;;5.50;;
54871;SDS011;43914;57.680;11.982;2024-01-27T08:24:50;46.10;;;5.40;;
54871;SDS011;43914;57.680;11.982;2024-01-27T08:27:15;38.00;;;5.00;;
54871;SDS011;43914;57.680;11.982;2024-01-27T08:29:41;45.30;;;5.80;;
54871;SDS011;43914;57.680;11.982;2024-01-27T08:32:06;42.30;;;4.90;;
54871;SDS011;43914;57.680;11.982;2024-01-27T08:34:32;39.40;;;4.90;;
54871;SDS011;43914;57.680;11.982;2024-01-27T08:36:59;37.20;;;4.90;;
54871;SDS011;43914;57.680;11.982;2024-01-27T08:39:27;40.00;;;5.20;;
54871;SDS011;43914;57.680;11.982;2024-01-27T08:41:53;38.20;;;5.00;;
54871;SDS011;43914;57.680;11.982;2024-01-27T08:44:18;51.70;;;6.20;;
54871;SDS011;43914;57.680;11.982;2024-01-27T08:46:44;40.40;;;5.00;;
54871;SDS011;43914;57.680;11.982;2024-01-27T08:49:09;39.60;;;5.60;;
54871;SDS011;43914;57.680;11.982;2024-01-27T08:51:34;46.00;;;5.20;;
54871;SDS011;43914;57.680;11.982;2024-01-27T08:54:00;46.20;;;6.10;;
54871;SDS011;43914;57.680;11.982;2024-01-27T08:56:25;49.50;;;5.10;;
54871;SDS011;43914;57.680;11.982;2024-01-27T08:58:51;38.00;;;4.80;;
54871;SDS011;43914;57.680;11.982;2024-01-27T09:01:17;44.20;;;5.10;;
54871;SDS011;43914;57.680;11.982;2024-01-27T09:03:44;42.00;;;5.10;;
54871;SDS011;43914;57.680;11.982;2024-01-27T09:06:09;44.40;;;5.20;;
54871;SDS011;43914;57.680;11.982;2024-01-27T09:08:35;41.70;;;5.20;;
54871;SDS011;43914;57.680;11.982;2024-01-27T09:11:01;42.10;;;5.50;;
54871;SDS011;43914;57.680;11.982;2024-01-27T09:13:27;40.20;;;4.70;;
54871;SDS011;43914;57.680;11.982;2024-01-27T09:15:52;36.20;;;4.70;;
54871;SDS011;43914;57.680;11.982;2024-01-27T09:18:18;40.10;;;5.50;;
54871;SDS011;43914;57.680;11.982;2024-01-27T09:20:44;39.20;;;4.40;;
54871;SDS011;43914;57.680;11.982;2024-01-27T09:23:09;34.70;;;4.30;;
54871;SDS011;43914;57.680;11.982;2024-01-27T09:25:35;36.40;;;4.80;;
54871;SDS011;43914;57.680;11.982;2024-01-27T09:28:00;33.90;;;4.90;;
54871;SDS011;43914;57.680;11.982;2024-01-27T09:30:26;34.70;;;4.30;;
54871;SDS011;43914;57.680;11.982;2024-01-27T09:32:52;38.50;;;4.40;;
54871;SDS011;43914;57.680;11.982;2024-01-27T09:35:18;30.40;;;3.70;;
54871;SDS011;43914;57.680;11.982;2024-01-27T09:37:43;36.50;;;4.90;;
54871;SDS011;43914;57.680;11.982;2024-01-27T09:40:11;37.50;;;4.40;;
54871;SDS011;43914;57.680;11.982;2024-01-27T09:42:37;42.60;;;5.20;;
54871;SDS011;43914;57.680;11.982;2024-01-27T09:45:08;34.50;;;4.20;;
54871;SDS011;43914;57.680;11.982;2024-01-27T09:47:35;41.20;;;4.60;;
54871;SDS011;43914;57.680;11.982;2024-01-27T09:50:01;42.00;;;5.30;;
54871;SDS011;43914;57.680;11.982;2024-01-27T09:52:27;51.60;;;5.50;;
54871;SDS011;43914;57.680;11.982;2024-01-27T09:54:53;47.40;;;6.60;;
54871;SDS011;43914;57.680;11.982;2024-01-27T09:57:18;48.40;;;5.60;;
54871;SDS011;43914;57.680;11.982;2024-01-27T09:59:46;35.80;;;5.10;;
54871;SDS011;43914;57.680;11.982;2024-01-27T10:02:14;31.10;;;4.50;;
54871;SDS011;43914;57.680;11.982;2024-01-27T10:04:43;40.10;;;5.20;;
54871;SDS011;43914;57.680;11.982;2024-01-27T10:07:13;36.50;;;5.40;;
54871;SDS011;43914;57.680;11.982;2024-01-27T10:09:40;35.80;;;4.70;;
54871;SDS011;43914;57.680;11.982;2024-01-27T10:12:08;36.00;;;5.00;;
54871;SDS011;43914;57.680;11.982;2024-01-27T10:14:41;40.10;;;4.80;;
54871;SDS011;43914;57.680;11.982;2024-01-27T10:17:11;39.10;;;5.90;;
54871;SDS011;43914;57.680;11.982;2024-01-27T10:19:37;45.90;;;5.60;;
54871;SDS011;43914;57.680;11.982;2024-01-27T10:22:03;45.30;;;6.80;;
54871;SDS011;43914;57.680;11.982;2024-01-27T10:24:28;38.80;;;5.50;;
54871;SDS011;43914;57.680;11.982;2024-01-27T10:27:02;31.90;;;4.80;;
54871;SDS011;43914;57.680;11.982;2024-01-27T10:29:29;45.00;;;5.20;;
54871;SDS011;43914;57.680;11.982;2024-01-27T10:31:55;37.40;;;5.20;;
54871;SDS011;43914;57.680;11.982;2024-01-27T10:34:21;47.20;;;5.60;;
54871;SDS011;43914;57.680;11.982;2024-01-27T10:36:49;38.60;;;5.80;;
54871;SDS011;43914;57.680;11.982;2024-01-27T10:39:18;38.60;;;5.60;;
54871;SDS011;43914;57.680;11.982;2024-01-27T10:41:47;36.60;;;5.00;;
54871;SDS011;43914;57.680;11.982;2024-01-27T10:44:15;40.60;;;4.90;;
54871;SDS011;43914;57.680;11.982;2024-01-27T10:46:42;40.40;;;4.90;;
54871;SDS011;43914;57.680;11.982;2024-01-27T10:49:11;35.80;;;4.90;;
54871;SDS011;43914;57.680;11.982;2024-01-27T10:51:38;45.10;;;5.60;;
54871;SDS011;43914;57.680;11.982;2024-01-27T10:54:08;31.30;;;5.00;;
54871;SDS011;43914;57.680;11.982;2024-01-27T10:56:38;43.20;;;6.00;;
54871;SDS011;43914;57.680;11.982;2024-01-27T10:59:07;39.20;;;5.70;;
54871;SDS011;43914;57.680;11.982;2024-01-27T11:01:35;38.70;;;5.60;;
54871;SDS011;43914;57.680;11.982;2024-01-27T11:04:03;28.70;;;4.30;;
54871;SDS011;43914;57.680;11.982;2024-01-27T11:06:29;39.10;;;5.10;;
54871;SDS011;43914;57.680;11.982;2024-01-27T11:08:56;52.80;;;5.90;;
54871;SDS011;43914;57.680;11.982;2024-01-27T11:11:23;49.10;;;6.60;;
54871;SDS011;43914;57.680;11.982;2024-01-27T11:13:48;37.60;;;4.70;;
54871;SDS011;43914;57.680;11.982;2024-01-27T11:16:16;44.30;;;6.20;;
54871;SDS011;43914;57.680;11.982;2024-01-27T11:18:43;46.50;;;6.40;;
54871;SDS011;43914;57.680;11.982;2024-01-27T11:21:14;61.40;;;6.10;;
54871;SDS011;43914;57.680;11.982;2024-01-27T11:23:43;46.10;;;6.00;;
54871;SDS011;43914;57.680;11.982;2024-01-27T11:26:16;39.00;;;5.30;;
54871;SDS011;43914;57.680;11.982;2024-01-27T11:28:47;55.80;;;6.30;;
54871;SDS011;43914;57.680;11.982;2024-01-27T11:31:17;53.00;;;6.00;;
54871;SDS011;43914;57.680;11.982;2024-01-27T11:33:46;51.50;;;5.80;;
54871;SDS011;43914;57.680;11.982;2024-01-27T11:36:22;46.90;;;6.50;;
54871;SDS011;43914;57.680;11.982;2024-01-27T11:38:49;44.60;;;6.00;;
54871;SDS011;43914;57.680;11.982;2024-01-27T11:41:24;41.20;;;6.10;;
54871;SDS011;43914;57.680;11.982;2024-01-27T11:43:54;41.90;;;6.10;;
54871;SDS011;43914;57.680;11.982;2024-01-27T11:46:22;44.60;;;5.70;;
54871;SDS011;43914;57.680;11.982;2024-01-27T11:48:49;38.00;;;5.90;;
54871;SDS011;43914;57.680;11.982;2024-01-27T11:51:14;51.00;;;6.30;;
54871;SDS011;43914;57.680;11.982;2024-01-27T11:53:40;43.20;;;5.80;;
54871;SDS011;43914;57.680;11.982;2024-01-27T11:56:07;45.60;;;6.50;;
54871;SDS011;43914;57.680;11.982;2024-01-27T11:58:33;53.70;;;6.10;;
54871;SDS011;43914;57.680;11.982;2024-01-27T12:00:58;37.00;;;5.30;;
54871;SDS011;43914;57.680;11.982;2024-01-27T12:03:25;39.40;;;5.20;;
54871;SDS011;43914;57.680;11.982;2024-01-27T12:05:52;63.30;;;8.00;;
54871;SDS011;43914;57.680;11.982;2024-01-27T12:08:17;32.50;;;4.80;;
54871;SDS011;43914;57.680;11.982;2024-01-27T12:10:43;55.30;;;6.60;;
54871;SDS011;43914;57.680;11.982;2024-01-27T12:13:09;48.40;;;6.00;;
54871;SDS011;43914;57.680;11.982;2024-01-27T12:15:35;49.40;;;6.20;;
54871;SDS011;43914;57.680;11.982;2024-01-27T12:18:00;40.90;;;5.10;;
54871;SDS011;43914;57.680;11.982;2024-01-27T12:20:26;46.10;;;6.20;;
54871;SDS011;43914;57.680;11.982;2024-01-27T12:23:05;43.60;;;5.90;;
54871;SDS011;43914;57.680;11.982;2024-01-27T12:25:31;42.60;;;5.80;;
54871;SDS011;43914;57.680;11.982;2024-01-27T12:28:01;40.50;;;6.20;;
54871;SDS011;43914;57.680;11.982;2024-01-27T12:30:32;51.30;;;7.40;;
54871;SDS011;43914;57.680;11.982;2024-01-27T12:33:08;38.60;;;5.80;;
54871;SDS011;43914;57.680;11.982;2024-01-27T12:35:34;39.20;;;5.50;;
54871;SDS011;43914;57.680;11.982;2024-01-27T12:38:00;46.40;;;5.90;;
54871;SDS011;43914;57.680;11.982;2024-01-27T12:40:25;40.40;;;5.70;;
54871;SDS011;43914;57.680;11.982;2024-01-27T12:42:51;40.90;;;5.40;;
54871;SDS011;43914;57.680;11.982;2024-01-27T12:45:17;42.90;;;6.50;;
54871;SDS011;43914;57.680;11.982;2024-01-27T12:47:43;43.00;;;5.90;;
54871;SDS011;43914;57.680;11.982;2024-01-27T12:50:09;42.20;;;5.80;;
54871;SDS011;43914;57.680;11.982;2024-01-27T12:52:34;43.00;;;4.80;;
54871;SDS011;43914;57.680;11.982;2024-01-27T12:55:00;43.30;;;5.80;;
54871;SDS011;43914;57.680;11.982;2024-01-27T12:57:26;44.00;;;6.60;;
54871;SDS011;43914;57.680;11.982;2024-01-27T12:59:51;31.30;;;4.90;;
54871;SDS011;43914;57.680;11.982;2024-01-27T13:02:16;46.10;;;6.20;;
54871;SDS011;43914;57.680;11.982;2024-01-27T13:04:42;41.20;;;6.00;;
54871;SDS011;43914;57.680;11.982;2024-01-27T13:07:09;44.80;;;5.50;;
54871;SDS011;43914;57.680;11.982;2024-01-27T13:09:35;38.70;;;5.50;;
54871;SDS011;43914;57.680;11.982;2024-01-27T13:12:02;40.10;;;5.50;;
54871;SDS011;43914;57.680;11.982;2024-01-27T13:14:28;49.60;;;5.80;;
54871;SDS011;43914;57.680;11.982;2024-01-27T13:16:54;34.20;;;5.20;;
54871;SDS011;43914;57.680;11.982;2024-01-27T13:19:21;52.10;;;6.90;;
54871;SDS011;43914;57.680;11.982;2024-01-27T13:21:47;44.60;;;6.40;;
54871;SDS011;43914;57.680;11.982;2024-01-27T13:24:13;44.40;;;6.00;;
54871;SDS011;43914;57.680;11.982;2024-01-27T13:26:38;44.00;;;5.70;;
54871;SDS011;43914;57.680;11.982;2024-01-27T13:29:04;41.70;;;5.80;;
54871;SDS011;43914;57.680;11.982;2024-01-27T13:31:31;46.00;;;6.70;;
54871;SDS011;43914;57.680;11.982;2024-01-27T13:33:57;49.30;;;7.10;;
54871;SDS011;43914;57.680;11.982;2024-01-27T13:36:24;43.90;;;6.00;;
54871;SDS011;43914;57.680;11.982;2024-01-27T13:38:51;48.20;;;6.10;;
54871;SDS011;43914;57.680;11.982;2024-01-27T13:41:17;46.60;;;5.90;;
54871;SDS011;43914;57.680;11.982;2024-01-27T13:43:43;40.70;;;5.70;;
54871;SDS011;43914;57.680;11.982;2024-01-27T13:46:08;44.80;;;5.90;;
54871;SDS011;43914;57.680;11.982;2024-01-27T13:48:34;43.50;;;5.80;;
54871;SDS011;43914;57.680;11.982;2024-01-27T13:51:00;38.20;;;5.10;;
54871;SDS011;43914;57.680;11.982;2024-01-27T13:53:25;43.50;;;4.80;;
54871;SDS011;43914;57.680;11.982;2024-01-27T13:55:51;39.70;;;5.70;;
54871;SDS011;43914;57.680;11.982;2024-01-27T13:58:18;41.80;;;5.70;;
54871;SDS011;43914;57.680;11.982;2024-01-27T14:00:44;35.60;;;5.50;;
54871;SDS011;43914;57.680;11.982;2024-01-27T14:03:09;37.20;;;5.40;;
54871;SDS011;43914;57.680;11.982;2024-01-27T14:05:35;37.10;;;5.20;;
54871;SDS011;43914;57.680;11.982;2024-01-27T14:08:00;32.50;;;4.60;;
54871;SDS011;43914;57.680;11.982;2024-01-27T14:10:26;47.10;;;6.50;;
54871;SDS011;43914;57.680;11.982;2024-01-27T14:12:52;33.20;;;4.90;;
54871;SDS011;43914;57.680;11.982;2024-01-27T14:15:18;111.10;;;20.30;;